Time;durP1;ratioP1;P1;durP2;ratioP2;P2;SDS_P1;SDS_P2;PMS_P1;PMS_P2;Temp;Humidity;BMP_temperature;BMP_pressure;BME280_temperature;BME280_humidity;BME280_pressure;Samples;Min_cycle;Max_cycle;Signal;HPM_P1;HPM_P2
2022/01/20 00:00:19;;;;;;;59.70;25.67;;;;;;;-0.68;96.48;101013.03;5106715;28;20031;-67
2022/01/20 00:02:57;;;;;;;62.85;24.95;;;;;;;-0.71;96.63;100999.94;5099929;28;20104;-66
2022/01/20 00:26:54;;;;;;;53.60;24.75;;;;;;;-0.84;97.10;100990.69;5099570;28;20439;-66
2022/01/20 00:29:26;;;;;;;58.88;25.92;;;;;;;-0.86;97.09;100984.59;5099770;28;20417;-66
2022/01/20 00:32:10;;;;;;;48.85;24.85;;;;;;;-0.83;97.39;100988.03;5108084;28;20131;-67
2022/01/20 00:37:22;;;;;;;59.03;25.85;;;;;;;-0.84;97.28;100988.06;5103962;28;20062;-66
2022/01/20 00:39:47;;;;;;;52.80;25.00;;;;;;;-0.84;97.57;100983.66;5104964;28;20032;-67
2022/01/20 00:42:15;;;;;;;57.83;25.27;;;;;;;-0.85;97.65;100975.78;5098958;28;20031;-68
2022/01/20 00:44:41;;;;;;;63.28;26.27;;;;;;;-0.94;97.58;100955.88;5105626;28;20406;-68
2022/01/20 00:47:06;;;;;;;59.10;24.27;;;;;;;-0.89;97.43;100971.53;5083272;28;20032;-68
2022/01/20 00:49:32;;;;;;;57.75;25.17;;;;;;;-0.84;97.34;100981.00;5107738;28;20068;-68
2022/01/20 00:51:57;;;;;;;53.28;25.35;;;;;;;-0.84;97.68;100974.91;5102399;28;20503;-68
2022/01/20 00:54:23;;;;;;;65.30;26.20;;;;;;;-0.88;97.53;100967.97;5102176;28;20015;-68
2022/01/20 00:56:49;;;;;;;68.45;26.40;;;;;;;-0.93;97.72;100965.50;5085247;28;20392;-66
2022/01/20 00:59:14;;;;;;;64.28;25.70;;;;;;;-0.91;97.87;100965.44;5084939;28;20028;-66
2022/01/20 01:01:40;;;;;;;55.83;25.65;;;;;;;-0.91;97.38;100961.06;5098263;28;20032;-66
2022/01/20 01:04:05;;;;;;;68.90;27.23;;;;;;;-0.97;97.47;100947.25;5095013;28;20142;-66
2022/01/20 01:09:06;;;;;;;64.18;27.10;;;;;;;-0.97;97.01;100939.34;5098247;28;20032;-66
2022/01/20 01:11:33;;;;;;;66.22;27.83;;;;;;;-0.96;97.68;100936.66;5081347;28;20476;-66
2022/01/20 01:14:00;;;;;;;60.05;25.63;;;;;;;-0.96;97.87;100933.16;5100477;28;20773;-67
2022/01/20 01:16:37;;;;;;;62.58;27.35;;;;;;;-0.95;97.54;100934.88;5103180;28;20094;-67
2022/01/20 01:22:02;;;;;;;64.82;27.25;;;;;;;-1.01;97.50;100919.25;5097199;28;20046;-67
2022/01/20 01:24:28;;;;;;;65.72;26.65;;;;;;;-1.00;97.99;100915.75;5083096;28;20126;-67
2022/01/20 01:26:53;;;;;;;65.72;28.65;;;;;;;-1.01;97.49;100922.78;5083778;28;20213;-67
2022/01/20 01:29:39;;;;;;;65.95;26.60;;;;;;;-1.03;97.63;100915.84;5078590;28;20042;-66
2022/01/20 01:32:07;;;;;;;66.38;28.20;;;;;;;-1.11;97.61;100902.03;5098895;28;20031;-66
2022/01/20 01:34:35;;;;;;;68.38;29.00;;;;;;;-1.04;97.62;100917.59;5102230;28;20031;-66
2022/01/20 01:39:26;;;;;;;65.07;27.48;;;;;;;-1.06;97.50;100934.34;5091928;28;20036;-67
2022/01/20 01:41:52;;;;;;;72.43;28.38;;;;;;;-1.04;97.66;100940.41;5081277;28;20067;-66
2022/01/20 01:44:24;;;;;;;69.00;28.73;;;;;;;-1.15;97.45;100924.09;5102783;28;20081;-66
2022/01/20 01:46:50;;;;;;;69.13;28.50;;;;;;;-1.18;97.26;100924.19;5102432;28;20031;-66
2022/01/20 01:49:17;;;;;;;68.38;29.25;;;;;;;-1.21;97.03;100921.66;5092812;28;20048;-66
2022/01/20 01:51:42;;;;;;;63.25;27.52;;;;;;;-1.19;97.41;100925.94;5080938;28;20020;-66
2022/01/20 01:54:10;;;;;;;55.75;26.95;;;;;;;-1.27;97.40;100911.31;5102894;28;20039;-67
2022/01/20 01:56:36;;;;;;;70.70;27.08;;;;;;;-1.24;97.18;100922.63;5085983;28;20036;-67
2022/01/20 01:59:01;;;;;;;61.65;27.30;;;;;;;-1.32;97.62;100907.97;5102150;28;20039;-66
2022/01/20 02:01:31;;;;;;;66.70;29.65;;;;;;;-1.30;97.53;100914.91;5101504;28;20034;-67
2022/01/20 02:04:10;;;;;;;58.28;28.67;;;;;;;-1.32;97.47;100910.59;5105581;28;20042;-66
2022/01/20 02:18:09;;;;;;;65.45;29.27;;;;;;;-1.51;96.63;100912.94;5104003;28;20486;-66
2022/01/20 02:20:35;;;;;;;63.20;29.67;;;;;;;-1.53;96.41;100927.00;5089829;28;20438;-66
2022/01/20 02:23:01;;;;;;;64.30;28.67;;;;;;;-1.60;96.04;100925.47;5087334;28;20036;-67
2022/01/20 02:25:29;;;;;;;64.38;28.52;;;;;;;-1.64;95.50;100921.22;5100654;28;20136;-67
2022/01/20 02:27:58;;;;;;;58.83;27.88;;;;;;;-1.68;95.41;100919.59;5099855;28;20040;-67
2022/01/20 02:30:25;;;;;;;75.47;29.17;;;;;;;-1.76;95.54;100919.78;5097243;28;20038;-66
2022/01/20 02:32:55;;;;;;;66.20;30.13;;;;;;;-1.75;95.64;100918.88;5099499;27;20031;-66
2022/01/20 02:35:23;;;;;;;59.58;26.67;;;;;;;-1.82;95.21;100913.84;5104194;28;20023;-66
2022/01/20 02:37:55;;;;;;;57.35;27.92;;;;;;;-1.92;94.93;100899.22;5098644;27;20521;-66
2022/01/20 02:45:48;;;;;;;65.97;27.55;;;;;;;-2.01;94.36;100904.72;5111221;28;20576;-66
2022/01/20 02:48:14;;;;;;;64.43;26.48;;;;;;;-2.10;94.35;100899.75;5089928;28;20027;-67
2022/01/20 02:50:40;;;;;;;64.15;28.92;;;;;;;-2.16;94.75;100895.50;5109321;28;20105;-67
2022/01/20 02:53:05;;;;;;;65.38;28.42;;;;;;;-2.16;94.80;100889.41;5086179;28;20461;-67
2022/01/20 02:55:31;;;;;;;70.28;28.30;;;;;;;-2.25;94.77;100887.03;5105837;28;20031;-66
2022/01/20 02:57:56;;;;;;;62.20;26.42;;;;;;;-2.32;94.42;100881.09;5104385;28;20031;-67
2022/01/20 03:00:22;;;;;;;63.70;26.95;;;;;;;-2.32;94.17;100892.44;5097720;28;20051;-67
2022/01/20 03:02:48;;;;;;;58.17;26.40;;;;;;;-2.39;93.78;100882.13;5103766;28;20067;-67
2022/01/20 03:05:13;;;;;;;70.70;28.55;;;;;;;-2.41;93.46;100879.53;5105948;28;20380;-66
2022/01/20 03:07:39;;;;;;;58.38;26.52;;;;;;;-2.50;93.69;100873.69;5103787;28;20039;-67
2022/01/20 03:10:07;;;;;;;55.85;26.15;;;;;;;-2.50;93.77;100874.56;5103278;28;20044;-66
2022/01/20 03:12:33;;;;;;;65.10;27.67;;;;;;;-2.52;93.99;100871.09;5097027;28;20122;-67
2022/01/20 03:14:58;;;;;;;52.83;26.42;;;;;;;-2.61;93.98;100849.47;5088686;28;20117;-66
2022/01/20 03:17:24;;;;;;;71.72;27.50;;;;;;;-2.64;94.79;100837.28;5104556;28;20512;-68
2022/01/20 03:19:49;;;;;;;60.78;28.90;;;;;;;-2.64;95.33;100831.19;5098657;28;20028;-68
2022/01/20 03:22:15;;;;;;;57.38;26.88;;;;;;;-2.61;95.75;100838.97;5100257;28;20067;-68
2022/01/20 03:24:40;;;;;;;58.47;27.08;;;;;;;-2.60;96.23;100831.06;5102212;28;20039;-68
2022/01/20 03:27:06;;;;;;;69.85;27.73;;;;;;;-2.63;96.40;100823.28;5105446;27;20070;-68
2022/01/20 03:29:32;;;;;;;69.25;29.05;;;;;;;-2.65;96.60;100816.31;5099634;28;20099;-68
2022/01/20 03:31:57;;;;;;;64.07;27.63;;;;;;;-2.60;96.32;100824.94;5090867;28;20035;-68
2022/01/20 03:34:23;;;;;;;75.97;32.17;;;;;;;-2.60;96.59;100814.44;5108746;28;20046;-68
2022/01/20 03:36:49;;;;;;;64.47;28.27;;;;;;;-2.54;97.22;100820.38;5110850;28;20028;-68
2022/01/20 03:39:15;;;;;;;69.55;30.83;;;;;;;-2.59;97.91;100800.41;5089959;28;20051;-68
2022/01/20 03:41:40;;;;;;;73.45;31.83;;;;;;;-2.57;98.23;100799.50;5088347;28;20032;-68
2022/01/20 03:44:06;;;;;;;76.78;32.80;;;;;;;-2.42;98.66;100816.56;5105135;28;20027;-68
2022/01/20 03:46:32;;;;;;;77.68;32.97;;;;;;;-2.41;99.31;100806.00;5108189;28;20025;-68
2022/01/20 03:49:08;;;;;;;82.18;34.05;;;;;;;-2.34;99.73;100809.34;5108607;28;20040;-68
2022/01/20 03:51:34;;;;;;;77.47;34.30;;;;;;;-2.33;100.00;100807.59;5088870;28;23679;-68
2022/01/20 03:53:59;;;;;;;78.65;33.50;;;;;;;-2.20;100.00;100817.69;5104930;28;20115;-68
2022/01/20 03:56:25;;;;;;;84.80;33.72;;;;;;;-2.15;100.00;100812.31;5099911;28;20097;-69
2022/01/20 03:58:51;;;;;;;85.32;31.00;;;;;;;-2.07;100.00;100815.59;5074439;28;20093;-68
2022/01/20 04:01:17;;;;;;;72.13;30.77;;;;;;;-2.07;100.00;100798.03;5079312;28;20027;-68
2022/01/20 04:03:43;;;;;;;72.30;32.65;;;;;;;-2.01;100.00;100815.38;5105241;28;20031;-68
2022/01/20 04:06:09;;;;;;;67.00;30.95;;;;;;;-1.92;100.00;100820.38;5105971;28;20024;-68
2022/01/20 04:08:47;;;;;;;75.28;31.30;;;;;;;-1.92;100.00;100805.50;5102267;28;20104;-68
2022/01/20 04:11:18;;;;;;;81.68;31.20;;;;;;;-1.85;100.00;100807.03;5095437;28;20122;-68
2022/01/20 04:13:45;;;;;;;73.30;29.17;;;;;;;-1.78;100.00;100815.59;5107446;28;20035;-68
2022/01/20 04:16:18;;;;;;;79.13;31.63;;;;;;;-1.76;100.00;100806.75;5112014;28;20399;-69
2022/01/20 04:18:55;;;;;;;68.40;30.20;;;;;;;-1.66;100.00;100817.84;5090673;28;20104;-69
2022/01/20 04:21:22;;;;;;;62.00;28.92;;;;;;;-1.60;100.00;100823.78;5112071;28;20031;-69
2022/01/20 04:23:50;;;;;;;64.68;28.95;;;;;;;-1.54;100.00;100820.09;5103331;28;20055;-68
2022/01/20 04:26:15;;;;;;;67.00;30.17;;;;;;;-1.54;100.00;100818.34;5108654;28;20033;-68
2022/01/20 04:28:41;;;;;;;64.93;28.73;;;;;;;-1.48;100.00;100817.28;5083783;28;20452;-67
2022/01/20 04:31:06;;;;;;;64.88;29.33;;;;;;;-1.44;100.00;100813.66;5107203;28;20085;-68
2022/01/20 04:33:32;;;;;;;68.80;29.45;;;;;;;-1.48;100.00;100799.72;5081426;28;20072;-68
2022/01/20 04:35:57;;;;;;;69.40;29.13;;;;;;;-1.42;100.00;100796.06;5111773;28;20059;-68
2022/01/20 04:38:23;;;;;;;73.40;30.98;;;;;;;-1.38;100.00;100795.91;5101175;28;20027;-68
2022/01/20 04:40:48;;;;;;;64.05;27.58;;;;;;;-1.40;100.00;100784.56;5109962;28;20032;-68
2022/01/20 04:43:14;;;;;;;69.00;27.88;;;;;;;-1.33;99.40;100791.34;5105526;28;20027;-68
2022/01/20 04:45:42;;;;;;;63.67;28.05;;;;;;;-1.28;99.32;100794.72;5088166;28;20042;-67
2022/01/20 04:48:44;;;;;;;60.15;27.20;;;;;;;-1.27;99.03;100795.56;5091989;28;20028;-66
2022/01/20 04:59:05;;;;;;;71.13;27.92;;;;;;;-1.23;98.41;100779.63;5102437;28;20635;-66
2022/01/20 05:01:31;;;;;;;61.83;26.48;;;;;;;-1.18;98.29;100782.09;5086451;28;20140;-66
2022/01/20 05:03:57;;;;;;;61.67;27.00;;;;;;;-1.16;98.07;100780.28;5086810;28;20024;-67
2022/01/20 05:06:23;;;;;;;65.47;28.63;;;;;;;-1.22;97.86;100770.84;5082511;28;20050;-66
2022/01/20 05:08:51;;;;;;;60.50;26.35;;;;;;;-1.13;97.50;100774.94;5082692;28;20031;-67
2022/01/20 05:11:16;;;;;;;59.50;28.83;;;;;;;-1.20;97.36;100760.22;5102323;28;20104;-67
2022/01/20 05:13:42;;;;;;;51.83;26.38;;;;;;;-1.19;97.40;100761.97;5100196;28;20064;-66
2022/01/20 05:16:08;;;;;;;69.18;27.60;;;;;;;-1.07;97.11;100761.53;5080387;28;20055;-67
2022/01/20 05:18:34;;;;;;;57.88;28.55;;;;;;;-1.09;96.82;100760.75;5071940;28;20039;-66
2022/01/20 05:21:00;;;;;;;65.22;27.20;;;;;;;-1.06;96.71;100765.91;5105331;28;21799;-68
2022/01/20 05:23:25;;;;;;;59.95;27.20;;;;;;;-1.09;96.35;100773.91;5081113;28;20040;-67
2022/01/20 05:25:51;;;;;;;56.35;26.27;;;;;;;-1.03;96.46;100784.25;5092385;28;20020;-67
2022/01/20 05:28:17;;;;;;;54.10;26.38;;;;;;;-1.03;96.13;100769.28;5094511;28;20047;-67
2022/01/20 05:30:42;;;;;;;58.72;26.17;;;;;;;-1.05;95.89;100772.91;5099316;28;20031;-67
2022/01/20 05:33:08;;;;;;;56.97;26.30;;;;;;;-1.07;95.96;100764.19;5091898;28;20506;-67
2022/01/20 05:35:34;;;;;;;68.90;25.67;;;;;;;-1.05;95.28;100760.59;5105290;28;20028;-67
2022/01/20 05:38:00;;;;;;;59.15;26.63;;;;;;;-1.07;94.82;100779.97;5096730;28;20032;-67
2022/01/20 05:40:26;;;;;;;59.85;27.15;;;;;;;-1.04;95.09;100783.38;5104874;28;20042;-67
2022/01/20 05:42:52;;;;;;;66.20;27.70;;;;;;;-1.03;95.05;100792.97;5085413;28;20061;-67
2022/01/20 05:45:17;;;;;;;57.03;26.70;;;;;;;-1.06;95.40;100786.97;5096010;28;20429;-67
2022/01/20 05:47:46;;;;;;;51.22;24.10;;;;;;;-1.05;95.66;100789.56;5094595;28;20028;-67
2022/01/20 05:50:17;;;;;;;61.25;24.52;;;;;;;-0.96;95.42;100783.13;5096948;28;20047;-67
2022/01/20 05:52:43;;;;;;;71.28;27.80;;;;;;;-1.03;95.17;100771.09;5107791;27;20054;-67
2022/01/20 05:55:17;;;;;;;58.97;25.58;;;;;;;-0.97;95.35;100784.03;5105129;27;20040;-67
2022/01/20 05:57:43;;;;;;;56.33;26.70;;;;;;;-0.97;95.57;100789.31;5102673;27;20099;-67
2022/01/20 06:00:15;;;;;;;51.85;25.30;;;;;;;-0.94;95.39;100787.41;5095895;28;20040;-69
2022/01/20 06:05:25;;;;;;;66.82;28.50;;;;;;;-0.93;95.72;100789.13;5102679;28;20095;-68
2022/01/20 06:07:51;;;;;;;58.65;27.15;;;;;;;-0.94;95.61;100789.16;5085473;28;20046;-68
2022/01/20 06:10:16;;;;;;;53.25;26.27;;;;;;;-0.88;95.71;100794.22;5102458;28;20041;-69
2022/01/20 06:12:42;;;;;;;55.70;27.40;;;;;;;-0.85;95.69;100796.75;5098381;28;20027;-68
2022/01/20 06:15:10;;;;;;;60.80;26.38;;;;;;;-0.89;95.84;100788.13;5101257;28;20110;-68
2022/01/20 06:17:37;;;;;;;54.88;28.10;;;;;;;-0.91;95.94;100789.94;5104967;28;20016;-68
2022/01/20 06:20:04;;;;;;;51.13;25.58;;;;;;;-0.77;95.91;100800.00;5104911;28;20027;-68
2022/01/20 06:22:30;;;;;;;57.13;28.67;;;;;;;-0.86;96.03;100774.00;5107460;28;20384;-68
2022/01/20 06:24:55;;;;;;;57.80;26.48;;;;;;;-0.79;96.18;100792.16;5105984;28;20085;-68
2022/01/20 06:27:21;;;;;;;57.58;26.17;;;;;;;-0.70;96.21;100801.53;5105020;28;20394;-68
2022/01/20 06:29:46;;;;;;;55.20;25.45;;;;;;;-0.67;96.05;100806.69;5108255;28;20043;-69
2022/01/20 06:32:12;;;;;;;60.70;25.70;;;;;;;-0.69;96.33;100801.47;5082875;28;20050;-70
2022/01/20 06:34:37;;;;;;;56.55;27.48;;;;;;;-0.65;96.15;100796.94;5103660;27;20023;-69
2022/01/20 06:37:03;;;;;;;52.97;23.88;;;;;;;-0.58;96.20;100809.00;5106371;27;20057;-69
2022/01/20 06:39:28;;;;;;;54.40;26.23;;;;;;;-0.59;96.16;100794.97;5110832;28;20074;-69
2022/01/20 06:41:54;;;;;;;56.03;25.15;;;;;;;-0.60;96.40;100793.25;5111962;27;20027;-69
2022/01/20 06:44:21;;;;;;;52.97;25.27;;;;;;;-0.54;96.74;100792.19;5112382;28;20024;-69
2022/01/20 06:46:48;;;;;;;45.67;25.20;;;;;;;-0.53;97.02;100785.97;5111721;28;20015;-69
2022/01/20 06:49:14;;;;;;;51.53;23.85;;;;;;;-0.47;96.63;100789.28;5100895;28;20437;-69
2022/01/20 06:51:40;;;;;;;56.45;24.58;;;;;;;-0.48;96.53;100773.53;5107269;28;20031;-69
2022/01/20 06:54:06;;;;;;;46.67;22.65;;;;;;;-0.44;96.51;100776.00;5099328;28;20036;-69
2022/01/20 06:56:31;;;;;;;51.35;22.63;;;;;;;-0.34;96.68;100772.13;5097142;27;20276;-70
2022/01/20 06:58:57;;;;;;;47.47;22.23;;;;;;;-0.32;96.57;100772.91;5114525;28;20024;-69
2022/01/20 07:01:23;;;;;;;49.75;23.05;;;;;;;-0.30;96.46;100768.44;5093884;28;20023;-69
2022/01/20 07:03:49;;;;;;;47.28;21.38;;;;;;;-0.28;96.29;100748.19;5092841;28;20035;-69
2022/01/20 07:06:14;;;;;;;47.45;21.58;;;;;;;-0.30;96.48;100730.69;5105378;27;20015;-69
2022/01/20 07:08:39;;;;;;;49.95;21.73;;;;;;;-0.19;96.13;100749.59;5108074;27;20031;-69
2022/01/20 07:11:05;;;;;;;48.70;23.08;;;;;;;-0.15;96.25;100743.28;5081458;28;20131;-71
2022/01/20 07:13:31;;;;;;;44.22;21.90;;;;;;;-0.25;95.92;100711.16;5092732;28;20111;-70
2022/01/20 07:15:56;;;;;;;50.03;22.38;;;;;;;-0.06;95.82;100724.50;5105254;27;20069;-70
2022/01/20 07:18:21;;;;;;;45.03;22.42;;;;;;;-0.04;95.77;100722.66;5085464;28;20024;-70
2022/01/20 07:20:47;;;;;;;44.67;21.50;;;;;;;-0.04;95.74;100720.88;5108826;28;20075;-70
2022/01/20 07:23:12;;;;;;;53.35;23.80;;;;;;;0.06;95.86;100726.66;5095200;27;20092;-70
2022/01/20 07:25:38;;;;;;;61.22;24.80;;;;;;;0.06;95.58;100710.81;5095698;28;20022;-70
2022/01/20 07:28:03;;;;;;;52.22;24.80;;;;;;;0.08;95.83;100700.22;5094553;28;20040;-70
2022/01/20 07:30:29;;;;;;;53.55;23.45;;;;;;;0.11;95.78;100700.97;5091515;28;20054;-69
2022/01/20 07:32:54;;;;;;;43.67;20.83;;;;;;;0.18;95.95;100710.38;5091362;28;20020;-70
2022/01/20 07:35:20;;;;;;;48.58;24.75;;;;;;;0.22;95.44;100711.94;5082917;28;20187;-70
2022/01/20 07:37:46;;;;;;;44.00;23.42;;;;;;;0.26;95.59;100702.16;5109578;28;20684;-70
2022/01/20 07:40:13;;;;;;;45.97;23.33;;;;;;;0.29;95.78;100699.38;5099930;28;20429;-70
2022/01/20 07:42:39;;;;;;;45.67;22.83;;;;;;;0.31;95.32;100703.69;5089694;28;20786;-70
2022/01/20 07:45:05;;;;;;;45.83;23.40;;;;;;;0.33;95.60;100698.34;5091000;28;20036;-70
2022/01/20 07:47:30;;;;;;;49.22;24.27;;;;;;;0.38;95.29;100702.50;5090995;28;20023;-70
2022/01/20 07:49:56;;;;;;;46.78;23.25;;;;;;;0.42;95.33;100698.81;5096836;28;20051;-70
2022/01/20 07:52:21;;;;;;;49.08;24.17;;;;;;;0.41;95.25;100705.03;5104920;27;20024;-70
2022/01/20 07:54:47;;;;;;;48.03;25.27;;;;;;;0.45;95.38;100716.31;5072950;28;20054;-70
2022/01/20 07:57:12;;;;;;;53.85;24.83;;;;;;;0.52;95.20;100713.38;5091081;28;20056;-70
2022/01/20 07:59:38;;;;;;;52.63;24.67;;;;;;;0.61;94.68;100705.06;5096476;28;20027;-70
2022/01/20 08:02:03;;;;;;;50.97;25.45;;;;;;;0.62;94.47;100706.81;5086154;28;20543;-70
2022/01/20 08:04:29;;;;;;;49.15;26.05;;;;;;;0.64;93.88;100704.09;5093792;28;20394;-70
2022/01/20 08:06:54;;;;;;;55.60;25.85;;;;;;;0.70;93.98;100701.19;5110609;28;20107;-70
2022/01/20 08:09:22;;;;;;;46.97;24.40;;;;;;;0.69;94.12;100694.19;5093137;28;20055;-70
2022/01/20 08:11:48;;;;;;;52.95;25.10;;;;;;;0.72;93.74;100700.22;5074059;28;20070;-70
2022/01/20 08:14:13;;;;;;;49.55;22.23;;;;;;;0.79;94.09;100695.53;5092309;28;20396;-70
2022/01/20 08:16:39;;;;;;;49.58;22.35;;;;;;;0.82;93.99;100690.13;5095528;28;20082;-70
2022/01/20 08:19:05;;;;;;;43.13;22.83;;;;;;;0.79;93.63;100698.16;5089475;28;20043;-70
2022/01/20 08:21:30;;;;;;;40.70;22.88;;;;;;;0.85;93.65;100698.78;5099468;28;20097;-70
2022/01/20 08:23:56;;;;;;;46.42;22.58;;;;;;;0.89;93.59;100702.13;5105868;28;20032;-70
2022/01/20 08:26:21;;;;;;;45.35;22.20;;;;;;;0.99;93.58;100720.16;5094179;28;20020;-70
2022/01/20 08:28:47;;;;;;;41.78;23.00;;;;;;;0.97;93.53;100713.25;5110979;28;20032;-70
2022/01/20 08:31:12;;;;;;;43.05;21.77;;;;;;;1.03;93.23;100718.25;5090149;28;20035;-70
2022/01/20 08:33:38;;;;;;;47.50;22.77;;;;;;;1.03;93.51;100715.63;5088349;28;20155;-70
2022/01/20 08:36:04;;;;;;;47.35;23.42;;;;;;;1.11;93.38;100726.69;5103429;28;20027;-70
2022/01/20 08:38:29;;;;;;;42.80;22.83;;;;;;;1.08;93.01;100719.78;5103820;28;20063;-70
2022/01/20 08:40:55;;;;;;;51.50;23.42;;;;;;;1.20;92.44;100723.66;5091482;28;20547;-70
2022/01/20 08:43:21;;;;;;;50.58;22.88;;;;;;;1.21;92.30;100709.53;5091719;28;20048;-70
2022/01/20 08:45:47;;;;;;;40.85;22.65;;;;;;;1.19;92.53;100698.19;5073558;28;20097;-70
2022/01/20 08:48:14;;;;;;;47.22;23.08;;;;;;;1.17;92.83;100692.97;5110296;28;20038;-67
2022/01/20 08:50:41;;;;;;;46.30;23.58;;;;;;;1.29;93.13;100704.78;5110860;28;20055;-67
2022/01/20 08:53:07;;;;;;;49.38;24.63;;;;;;;1.34;92.65;100714.22;5108695;28;20032;-70
2022/01/20 08:55:34;;;;;;;57.47;24.55;;;;;;;1.34;92.83;100694.84;5091363;28;20036;-70
2022/01/20 08:58:00;;;;;;;42.78;22.13;;;;;;;1.40;92.71;100699.88;5089424;28;20552;-70
2022/01/20 09:00:31;;;;;;;39.78;21.27;;;;;;;1.43;92.44;100699.75;5110763;28;20031;-70
2022/01/20 09:02:57;;;;;;;41.45;22.48;;;;;;;1.49;93.02;100705.59;5091639;28;20028;-70
2022/01/20 09:05:22;;;;;;;44.65;22.35;;;;;;;1.46;92.50;100687.25;5084372;27;20023;-70
2022/01/20 09:07:48;;;;;;;43.20;22.88;;;;;;;1.53;92.32;100701.91;5132759;27;20027;-70
2022/01/20 09:10:19;;;;;;;44.63;21.63;;;;;;;1.59;93.14;100700.78;5111230;28;20028;-70
2022/01/20 09:15:28;;;;;;;43.05;21.40;;;;;;;1.66;92.61;100702.22;5110814;28;20073;-70
2022/01/20 09:17:55;;;;;;;41.97;21.70;;;;;;;1.66;92.62;100700.44;5114677;27;20040;-70
2022/01/20 09:20:21;;;;;;;45.78;21.98;;;;;;;1.68;92.63;100701.19;5110097;28;20486;-69
2022/01/20 09:22:48;;;;;;;47.53;23.38;;;;;;;1.68;92.59;100693.28;5076055;28;20028;-69
2022/01/20 09:25:15;;;;;;;44.65;21.75;;;;;;;1.72;92.24;100683.44;5108287;28;20069;-69
2022/01/20 09:27:42;;;;;;;38.20;20.83;;;;;;;1.82;92.27;100687.34;5113833;28;20356;-69
2022/01/20 09:30:09;;;;;;;41.42;21.88;;;;;;;1.93;91.38;100685.06;5097458;28;20077;-69
2022/01/20 09:32:37;;;;;;;40.55;20.42;;;;;;;1.90;91.14;100675.50;5098700;28;20028;-69
2022/01/20 09:35:04;;;;;;;38.38;20.30;;;;;;;1.94;91.46;100674.41;5094800;27;20031;-70
2022/01/20 09:37:29;;;;;;;39.90;20.35;;;;;;;1.99;91.84;100677.72;5095431;28;20414;-70
2022/01/20 09:39:55;;;;;;;40.97;20.75;;;;;;;2.01;92.03;100667.06;5105405;28;20023;-70
2022/01/20 09:42:21;;;;;;;34.63;19.25;;;;;;;2.10;91.84;100672.75;5089907;28;20505;-70
2022/01/20 09:44:47;;;;;;;39.25;20.23;;;;;;;2.18;91.72;100675.03;5095580;28;20024;-70
2022/01/20 09:47:16;;;;;;;41.97;20.30;;;;;;;2.25;91.47;100674.69;5097425;28;20019;-70
2022/01/20 09:49:42;;;;;;;39.58;19.50;;;;;;;2.31;91.52;100665.56;5111466;28;20083;-70
2022/01/20 09:52:08;;;;;;;39.25;20.65;;;;;;;2.27;90.87;100640.22;5081346;28;20024;-70
2022/01/20 09:54:34;;;;;;;33.20;20.25;;;;;;;2.41;91.15;100656.25;5114247;28;20047;-70
2022/01/20 09:57:00;;;;;;;44.45;21.63;;;;;;;2.50;90.49;100654.94;5115061;28;20035;-70
2022/01/20 09:59:26;;;;;;;41.97;23.13;;;;;;;2.61;90.06;100647.34;5109225;28;20085;-70
2022/01/20 10:01:58;;;;;;;39.88;21.75;;;;;;;2.69;89.75;100645.16;5101527;28;20042;-70
2022/01/20 10:04:35;;;;;;;43.40;21.73;;;;;;;2.76;90.06;100655.34;5114228;28;20073;-70
2022/01/20 10:07:08;;;;;;;39.22;20.77;;;;;;;2.83;89.80;100645.31;5106578;27;20074;-70
2022/01/20 10:09:41;;;;;;;42.45;22.85;;;;;;;2.91;89.37;100627.22;5095025;28;20033;-70
2022/01/20 10:12:10;;;;;;;44.00;21.63;;;;;;;2.97;89.21;100629.56;5113987;28;20036;-70
2022/01/20 10:14:49;;;;;;;40.13;20.88;;;;;;;3.06;88.70;100613.19;5115065;28;20027;-70
2022/01/20 10:17:15;;;;;;;39.45;21.13;;;;;;;3.10;88.67;100598.84;5103293;27;20062;-70
2022/01/20 10:19:41;;;;;;;38.40;20.10;;;;;;;3.14;88.36;100584.50;5094817;28;20075;-71
2022/01/20 10:22:14;;;;;;;38.72;20.73;;;;;;;3.31;86.99;100603.84;5094914;28;20047;-71
2022/01/20 10:24:40;;;;;;;39.58;21.10;;;;;;;3.31;86.78;100593.25;5098842;27;20070;-71
2022/01/20 10:27:11;;;;;;;35.30;19.48;;;;;;;3.39;86.04;100606.09;5114300;27;20456;-71
2022/01/20 10:29:36;;;;;;;33.13;18.50;;;;;;;3.42;85.38;100613.91;5093189;28;20089;-71
2022/01/20 10:32:02;;;;;;;36.33;19.63;;;;;;;3.48;85.36;100602.97;5101884;28;21129;-71
2022/01/20 10:34:35;;;;;;;38.28;19.67;;;;;;;3.40;85.47;100592.75;5108682;27;20030;-71
2022/01/20 10:37:09;;;;;;;38.17;19.83;;;;;;;3.50;85.23;100603.72;5106985;28;20042;-71
2022/01/20 10:39:43;;;;;;;33.13;17.98;;;;;;;3.51;85.13;100592.19;5114304;28;20081;-71
2022/01/20 10:42:09;;;;;;;;;;;;;;;3.63;84.22;100610.06;5110782;28;20039;-71
2022/01/20 10:44:46;;;;;;;33.15;17.10;;;;;;;3.68;83.67;100592.94;5112013;28;20002;-71
2022/01/20 10:47:20;;;;;;;29.52;16.65;;;;;;;3.68;83.99;100602.72;5101138;28;20039;-71
2022/01/20 10:49:47;;;;;;;30.08;16.35;;;;;;;3.72;84.10;100598.94;5112228;28;20047;-71
2022/01/20 10:52:14;;;;;;;30.92;15.55;;;;;;;3.74;83.84;100608.53;5088605;28;20050;-71
2022/01/20 10:54:46;;;;;;;27.95;16.20;;;;;;;3.70;83.66;100598.16;5078338;28;20038;-71
2022/01/20 10:57:15;;;;;;;24.30;15.20;;;;;;;3.81;83.44;100604.59;5094178;28;20023;-72
2022/01/20 10:59:50;;;;;;;31.27;16.27;;;;;;;3.82;83.51;100605.44;5106383;27;20094;-72
2022/01/20 11:02:19;;;;;;;27.13;14.23;;;;;;;3.98;82.63;100616.91;5106928;28;20042;-71
2022/01/20 11:04:45;;;;;;;28.10;15.70;;;;;;;3.97;83.00;100637.28;5075810;28;20047;-72
2022/01/20 11:07:11;;;;;;;29.83;16.80;;;;;;;3.89;83.57;100625.38;5096896;28;20016;-69
2022/01/20 11:09:42;;;;;;;25.50;15.68;;;;;;;3.96;84.52;100626.75;5085041;27;20114;-68
2022/01/20 11:12:09;;;;;;;32.50;18.33;;;;;;;4.07;84.78;100616.41;5095762;27;21022;-67
2022/01/20 11:14:35;;;;;;;30.42;17.33;;;;;;;4.01;85.35;100606.13;5100553;27;20123;-68
2022/01/20 11:17:03;;;;;;;35.63;18.95;;;;;;;3.97;85.98;100604.59;5097290;27;20126;-67
2022/01/20 11:19:35;;;;;;;31.23;18.38;;;;;;;3.98;86.53;100616.91;5082966;27;20510;-68
2022/01/20 11:22:09;;;;;;;36.10;18.75;;;;;;;3.93;87.87;100621.63;5093975;27;20042;-67
2022/01/20 11:24:39;;;;;;;33.35;17.77;;;;;;;3.99;87.46;100598.25;5095809;28;20040;-67
2022/01/20 11:27:07;;;;;;;30.80;17.90;;;;;;;3.96;87.80;100600.22;5097328;27;20027;-67
2022/01/20 11:29:38;;;;;;;33.42;18.60;;;;;;;4.02;87.66;100598.09;5097972;28;20038;-66
2022/01/20 11:32:21;;;;;;;31.95;18.65;;;;;;;4.04;87.32;100595.34;5097655;28;20471;-68
2022/01/20 11:37:58;;;;;;;31.00;17.48;;;;;;;3.99;86.63;100592.09;5110372;28;20035;-68
2022/01/20 11:40:39;;;;;;;33.50;18.10;;;;;;;3.99;87.27;100592.09;5089725;28;20027;-69
2022/01/20 11:43:47;;;;;;;34.78;19.92;;;;;;;4.00;88.22;100599.13;5093279;27;20040;-69
2022/01/20 11:46:21;;;;;;;31.60;17.98;;;;;;;4.12;87.77;100609.03;5090267;27;20168;-67
2022/01/20 11:49:09;;;;;;;31.63;18.70;;;;;;;4.10;88.54;100610.94;5096716;28;20119;-68
2022/01/20 11:51:53;;;;;;;37.72;20.02;;;;;;;4.19;89.38;100621.88;5093240;27;20042;-66
2022/01/20 11:54:34;;;;;;;39.90;19.13;;;;;;;4.21;89.89;100620.00;5112032;28;20035;-66
2022/01/20 11:57:13;;;;;;;31.90;20.35;;;;;;;4.22;90.69;100608.41;5112190;28;20379;-66
2022/01/20 11:59:42;;;;;;;31.05;17.42;;;;;;;4.33;90.71;100600.69;5088093;28;20032;-66
2022/01/20 12:02:09;;;;;;;29.52;17.48;;;;;;;4.32;91.48;100604.28;5110096;28;20419;-66
2022/01/20 12:04:40;;;;;;;29.70;15.88;;;;;;;4.29;92.72;100601.81;5111988;28;20032;-66
2022/01/20 12:07:08;;;;;;;26.20;14.30;;;;;;;4.26;92.99;100604.63;5100271;27;20047;-67
2022/01/20 12:09:39;;;;;;;28.50;15.60;;;;;;;4.28;93.85;100602.75;5078906;28;20463;-66
2022/01/20 12:12:07;;;;;;;29.45;16.98;;;;;;;4.28;94.11;100593.94;5073223;28;20031;-66
2022/01/20 12:14:35;;;;;;;36.55;18.05;;;;;;;4.25;94.55;100599.41;5091260;28;20077;-67
2022/01/20 12:17:15;;;;;;;32.13;18.73;;;;;;;4.26;94.57;100593.19;5091253;28;20077;-67
2022/01/20 12:19:43;;;;;;;30.80;17.10;;;;;;;4.28;94.64;100597.47;5072805;28;20545;-66